Van Buren, IN (46991)

12:20 PM EDT on July 27, 2016 (GMT -0400)
South Huntington County | | Change Station

Elev 853 ft 40.66 °N, 85.51 °W | Updated 10 seconds ago

Clear
Clear
82.0 °F
Feels Like 85 °F
N
3.6
Wind Variable Wind from SW
Gusts 4.9 mph

Today
High -- | Low -- °F
--% Chance of Precip.
Yesterday
High -- | Low -- °F
Precip. -- in
Pressure 30.04 in
Visibility 7.0 miles
Clouds Clear
Heat Index 85 °F
Dew Point 69 °F
Humidity 64%
Rainfall 0.00 in
Snow Depth Not available.
6:34 AM 9:01 PM
Last Quarter, 42% visible
METAR KMZZ 271615Z AUTO 00000KT 7SM CLR 27/18 A3004 RMK AO2 T02740178
Pressure 30.04 in
Visibility 7.0 miles
Clouds Clear
Heat Index 85 °F
Dew Point 69 °F
Humidity 64%
Rainfall 0.00 in
Snow Depth Not available.
6:34 AM 9:01 PM
Last Quarter, 42% visible
METAR KMZZ 271615Z AUTO 00000KT 7SM CLR 27/18 A3004 RMK AO2 T02740178

10-Day Weather Forecast

Almanac

Astronomy

Jul. 27, 2016 Rise Set
Actual Time
Civil Twilight
Nautical Twilight
Astronomical Twilight
Moon
Length of Visible Light
Length of Day
Tomorrow will be .
, % of the Moon is Illuminated

Today's Extremes

State Highs State Lows

Community

WunderPhotos

Upload Photos

1,927,877 photos uploaded!

WunderBlog® & News

Nearby

Air Quality

  Air Quality AQ Index Pollutant
Not available.

Snow Depth

Station Depth Elevation

Earthquake Activity

City Distance Mag. Time & Date
Minimum magnitude displayed is 2.5.

Coastal Water Temperatures

Place Temperature

Stations

Nearby Weather Stations

Station Location Temp. Windchill Dew Point Humidity Wind Precip. Elev Updated Type
                   

Watches & Warnings

There are currently no watches in effect.